Time;durP1;ratioP1;P1;durP2;ratioP2;P2;SDS_P1;SDS_P2;PMS_P1;PMS_P2;Temp;Humidity;BMP_temperature;BMP_pressure;BME280_temperature;BME280_humidity;BME280_pressure;Samples;Min_cycle;Max_cycle;Signal;HPM_P1;HPM_P2
2023/03/03 00:00:23;;;;;;;99.53;59.38;;;;;;;-1.07;100.00;102307.47;5016687;28;1040618;-72
2023/03/03 00:02:48;;;;;;;104.70;60.90;;;;;;;-0.97;100.00;102314.34;5054543;28;20041;-73
2023/03/03 00:05:15;;;;;;;102.15;59.10;;;;;;;-0.91;100.00;102304.81;5054222;28;20033;-72
2023/03/03 00:07:45;;;;;;;96.50;58.88;;;;;;;-0.89;100.00;102310.03;5053464;28;20083;-72
2023/03/03 00:10:11;;;;;;;100.50;58.10;;;;;;;-0.79;100.00;102319.44;5054133;28;20028;-72
2023/03/03 00:12:45;;;;;;;95.47;55.70;;;;;;;-0.73;100.00;102312.47;5054101;28;20472;-70
2023/03/03 00:15:20;;;;;;;90.22;53.15;;;;;;;-0.71;100.00;102316.03;5053468;28;20025;-71
2023/03/03 00:17:45;;;;;;;86.80;54.40;;;;;;;-0.69;100.00;102317.97;5054017;28;20021;-71
2023/03/03 00:20:32;;;;;;;85.68;51.20;;;;;;;-0.66;100.00;102330.03;5053611;28;20103;-71
2023/03/03 00:23:23;;;;;;;87.63;53.17;;;;;;;-0.59;100.00;102329.03;5053553;28;20491;-71
2023/03/03 00:25:50;;;;;;;84.40;50.60;;;;;;;-0.58;100.00;102324.09;5046769;28;20045;-71
2023/03/03 00:28:39;;;;;;;87.57;52.65;;;;;;;-0.54;100.00;102327.84;5052051;28;20029;-71
2023/03/03 00:31:17;;;;;;;82.20;50.85;;;;;;;-0.52;100.00;102326.34;5053903;28;20055;-71
2023/03/03 00:33:49;;;;;;;83.45;52.92;;;;;;;-0.52;100.00;102331.41;5053834;28;20146;-71
2023/03/03 00:36:15;;;;;;;82.50;51.25;;;;;;;-0.52;100.00;102318.72;5053450;28;20028;-71
2023/03/03 00:38:41;;;;;;;83.25;51.10;;;;;;;-0.51;100.00;102323.94;5053733;28;20103;-71
2023/03/03 00:41:22;;;;;;;86.70;51.42;;;;;;;-0.51;100.00;102323.94;5053132;28;20477;-71
2023/03/03 00:43:48;;;;;;;81.47;50.17;;;;;;;-0.52;100.00;102321.28;5053448;28;20040;-71
2023/03/03 00:46:18;;;;;;;75.60;48.80;;;;;;;-0.51;100.00;102328.13;5053361;28;20511;-71
2023/03/03 00:48:44;;;;;;;77.30;47.13;;;;;;;-0.51;100.00;102328.13;5052853;28;20104;-70
2023/03/03 00:51:33;;;;;;;77.70;49.25;;;;;;;-0.48;100.00;102327.53;5053355;28;20033;-71
2023/03/03 00:53:58;;;;;;;75.75;49.50;;;;;;;-0.51;100.00;102323.94;5053399;28;20079;-70
2023/03/03 00:56:25;;;;;;;80.55;49.78;;;;;;;-0.50;100.00;102319.78;5052881;28;20507;-70
2023/03/03 00:58:50;;;;;;;75.97;48.08;;;;;;;-0.50;100.00;102324.84;5053514;28;20025;-70
2023/03/03 01:01:16;;;;;;;80.38;48.28;;;;;;;-0.49;100.00;102321.59;5052911;28;20064;-70
2023/03/03 01:03:42;;;;;;;77.75;49.22;;;;;;;-0.48;100.00;102328.41;5052615;28;20033;-70
2023/03/03 01:06:08;;;;;;;75.95;48.03;;;;;;;-0.45;100.00;102331.28;5052893;28;20028;-70
2023/03/03 01:08:34;;;;;;;80.40;49.15;;;;;;;-0.44;100.00;102335.59;5053423;28;20021;-70
2023/03/03 01:11:04;;;;;;;81.10;49.03;;;;;;;-0.41;100.00;102335.88;5052359;28;20029;-70
2023/03/03 01:13:33;;;;;;;77.53;49.20;;;;;;;-0.40;100.00;102337.69;5053417;28;20028;-71
2023/03/03 01:16:00;;;;;;;74.35;46.47;;;;;;;-0.37;100.00;102340.50;5052695;28;20025;-70
2023/03/03 01:18:25;;;;;;;75.47;48.60;;;;;;;-0.36;100.00;102339.75;5052546;28;20025;-70
2023/03/03 01:20:51;;;;;;;73.97;46.83;;;;;;;-0.36;100.00;102339.75;5053327;28;20126;-70
2023/03/03 01:23:16;;;;;;;76.18;47.38;;;;;;;-0.34;100.00;102342.44;5052412;28;20107;-70
2023/03/03 01:25:41;;;;;;;77.22;50.05;;;;;;;-0.32;100.00;102342.59;5052642;28;20029;-70
2023/03/03 01:28:07;;;;;;;77.72;48.65;;;;;;;-0.32;100.00;102340.97;5052698;28;20065;-70
2023/03/03 01:30:33;;;;;;;81.78;50.75;;;;;;;-0.30;100.00;102331.84;5052609;28;20112;-70
2023/03/03 01:32:58;;;;;;;79.00;50.22;;;;;;;-0.30;100.00;102333.50;5051930;28;20032;-70
2023/03/03 01:35:23;;;;;;;83.45;52.00;;;;;;;-0.27;100.00;102346.47;5053067;28;20021;-70
2023/03/03 01:37:49;;;;;;;77.15;49.33;;;;;;;-0.27;100.00;102349.00;5052828;28;20052;-70
2023/03/03 01:40:20;;;;;;;76.85;49.08;;;;;;;-0.28;100.00;102352.28;5052212;28;20082;-70
2023/03/03 01:42:45;;;;;;;51.38;18.10;;;;;;;-0.22;100.00;102353.78;5052746;28;20428;-70
2023/03/03 01:45:25;;;;;;;64.68;42.65;;;;;;;-0.40;100.00;102352.88;5051641;28;20021;-70
2023/03/03 01:47:59;;;;;;;60.33;40.63;;;;;;;-0.54;100.00;102359.13;5052578;28;20057;-70
2023/03/03 01:50:48;;;;;;;61.55;41.03;;;;;;;-0.57;100.00;102353.75;5052820;28;20037;-70
2023/03/03 01:53:21;;;;;;;61.25;41.47;;;;;;;-0.69;100.00;102358.47;5051954;28;20581;-70
2023/03/03 01:55:51;;;;;;;59.85;40.15;;;;;;;-0.78;100.00;102357.56;5052662;28;20032;-70
2023/03/03 01:58:26;;;;;;;62.63;41.45;;;;;;;-0.84;100.00;102359.47;5051963;28;20427;-70
2023/03/03 02:01:04;;;;;;;59.90;40.78;;;;;;;-0.87;100.00;102355.00;5051957;28;20048;-70
2023/03/03 02:03:29;;;;;;;;;;;;;;;-0.77;100.00;102359.38;5053123;28;20029;-70
2023/03/03 02:05:59;;;;;;;66.25;42.08;;;;;;;-0.92;100.00;102350.25;5052072;28;19935;-71
2023/03/03 02:08:34;;;;;;;63.53;42.15;;;;;;;-1.02;100.00;102354.38;5051810;28;20017;-71
2023/03/03 02:11:00;;;;;;;67.65;44.30;;;;;;;-1.06;100.00;102349.75;5052386;28;20103;-71
2023/03/03 02:13:25;;;;;;;71.13;43.30;;;;;;;-1.12;100.00;102359.25;5051802;28;20538;-70
2023/03/03 02:15:51;;;;;;;72.55;44.45;;;;;;;-1.12;100.00;102358.34;5052404;28;20029;-70
2023/03/03 02:18:19;;;;;;;70.40;45.75;;;;;;;-1.15;100.00;102358.94;5052098;28;20088;-70
2023/03/03 02:21:01;;;;;;;73.78;46.33;;;;;;;-1.16;100.00;102362.22;5051521;28;20466;-70
2023/03/03 02:24:03;;;;;;;74.85;45.45;;;;;;;-1.17;100.00;102355.38;5052584;28;20021;-70
2023/03/03 02:26:32;;;;;;;74.40;45.53;;;;;;;-1.20;100.00;102357.56;5052192;28;20362;-71
2023/03/03 02:28:57;;;;;;;69.50;43.88;;;;;;;-1.20;100.00;102349.97;5051353;28;20039;-70
2023/03/03 02:31:26;;;;;;;75.18;46.28;;;;;;;-1.23;100.00;102357.28;5052396;28;20025;-71
2023/03/03 02:33:52;;;;;;;71.38;44.22;;;;;;;-1.20;100.00;102366.06;5052170;28;20028;-71
2023/03/03 02:36:24;;;;;;;71.80;45.22;;;;;;;-1.22;100.00;102361.59;5051633;28;20025;-71
2023/03/03 02:39:07;;;;;;;74.68;46.97;;;;;;;-1.19;100.00;102356.84;5052057;28;20029;-70
2023/03/03 02:41:43;;;;;;;69.95;44.17;;;;;;;-1.18;100.00;102349.41;5051588;28;20079;-70
2023/03/03 02:44:11;;;;;;;72.55;44.67;;;;;;;-1.13;100.00;102354.06;5051787;28;20449;-71
2023/03/03 02:46:40;;;;;;;71.25;45.58;;;;;;;-1.13;100.00;102352.41;5052357;28;20021;-70
2023/03/03 02:49:07;;;;;;;71.72;45.28;;;;;;;-1.11;100.00;102350.03;5051029;28;20025;-71
2023/03/03 02:51:33;;;;;;;75.03;47.05;;;;;;;-1.07;100.00;102353.03;5052731;28;20079;-71
2023/03/03 02:53:59;;;;;;;67.78;43.13;;;;;;;-1.07;100.00;102342.91;5055319;28;20029;-70
2023/03/03 02:56:24;;;;;;;72.07;44.58;;;;;;;-1.04;100.00;102344.84;5055188;28;20095;-70
2023/03/03 02:58:50;;;;;;;65.28;42.92;;;;;;;-1.02;100.00;102354.38;5055969;28;20051;-70
2023/03/03 03:01:15;;;;;;;70.85;42.83;;;;;;;-1.00;100.00;102352.88;5054951;28;20052;-70
2023/03/03 03:03:41;;;;;;;45.83;17.10;;;;;;;-0.91;100.00;102354.56;5055138;28;20033;-70
2023/03/03 03:06:06;;;;;;;66.82;42.10;;;;;;;-0.96;100.00;102353.22;5055325;28;20017;-71
2023/03/03 03:08:32;;;;;;;67.85;42.72;;;;;;;-0.96;100.00;102355.75;5055189;28;20058;-70
2023/03/03 03:10:57;;;;;;;67.43;43.47;;;;;;;-0.95;100.00;102348.28;5054474;28;20780;-71
2023/03/03 03:13:23;;;;;;;71.75;45.78;;;;;;;-0.92;100.00;102358.72;5055745;28;20017;-70
2023/03/03 03:15:48;;;;;;;72.35;45.65;;;;;;;-0.91;100.00;102357.97;5055329;28;20047;-71
2023/03/03 03:18:14;;;;;;;69.68;44.33;;;;;;;-0.90;100.00;102358.88;5054645;28;20028;-70
2023/03/03 03:20:40;;;;;;;65.75;41.47;;;;;;;-0.92;100.00;102361.25;5055301;28;20025;-70
2023/03/03 03:23:06;;;;;;;67.40;42.58;;;;;;;-0.95;100.00;102368.53;5054806;28;20029;-70
2023/03/03 03:25:32;;;;;;;65.70;40.20;;;;;;;-0.95;100.00;102362.59;5054583;28;20063;-70
2023/03/03 03:27:57;;;;;;;62.60;39.53;;;;;;;-0.99;100.00;102371.50;5054938;28;20036;-71
2023/03/03 03:30:23;;;;;;;56.92;37.75;;;;;;;-1.04;100.00;102367.63;5055111;28;20025;-70
2023/03/03 03:32:48;;;;;;;57.13;36.65;;;;;;;-1.09;100.00;102372.19;5054669;28;20533;-70
2023/03/03 03:35:14;;;;;;;58.22;36.95;;;;;;;-1.12;100.00;102374.44;5054744;28;20551;-72
2023/03/03 03:37:39;;;;;;;58.55;37.50;;;;;;;-1.14;100.00;102375.03;5054199;28;20025;-71
2023/03/03 03:40:05;;;;;;;58.33;38.25;;;;;;;-1.18;100.00;102378.88;5054464;28;20048;-71
2023/03/03 03:42:31;;;;;;;60.35;38.42;;;;;;;-1.22;100.00;102372.59;5054788;28;20460;-71
2023/03/03 03:44:56;;;;;;;63.65;39.25;;;;;;;-1.24;100.00;102374.09;5053915;28;20060;-71
2023/03/03 03:47:22;;;;;;;59.42;39.00;;;;;;;-1.24;100.00;102368.13;5054866;28;20055;-70
2023/03/03 03:49:47;;;;;;;62.03;38.78;;;;;;;-1.24;100.00;102370.66;5054802;28;20385;-70
2023/03/03 03:52:12;;;;;;;71.38;41.08;;;;;;;-1.22;100.00;102369.19;5053639;28;20396;-70
2023/03/03 03:54:38;;;;;;;67.70;41.33;;;;;;;-1.20;100.00;102366.06;5054555;28;20503;-70
2023/03/03 03:57:03;;;;;;;62.20;39.15;;;;;;;-1.19;100.00;102374.53;5054509;28;20465;-70
2023/03/03 03:59:29;;;;;;;70.85;40.10;;;;;;;-1.16;100.00;102378.28;5053879;28;20358;-70
2023/03/03 04:01:54;;;;;;;65.85;40.40;;;;;;;-1.14;100.00;102380.97;5054023;28;20405;-71
2023/03/03 04:04:19;;;;;;;64.82;40.30;;;;;;;-1.12;100.00;102374.44;5053242;28;20033;-71
2023/03/03 04:06:45;;;;;;;60.95;38.67;;;;;;;-1.13;100.00;102377.69;5053983;28;20146;-70
2023/03/03 04:09:10;;;;;;;61.38;40.08;;;;;;;-1.12;100.00;102387.09;5053830;28;20037;-73
2023/03/03 04:11:35;;;;;;;63.35;39.45;;;;;;;-1.11;100.00;102376.22;5054334;28;20020;-70
2023/03/03 04:14:01;;;;;;;61.38;38.50;;;;;;;-1.09;100.00;102389.03;5053413;28;20400;-70
2023/03/03 04:16:26;;;;;;;34.25;12.65;;;;;;;-1.02;100.00;102387.28;5054407;28;20029;-70
2023/03/03 04:18:51;;;;;;;64.07;38.75;;;;;;;-1.06;100.00;102382.66;5054020;28;20028;-70
2023/03/03 04:21:16;;;;;;;61.47;38.65;;;;;;;-1.04;100.00;102381.16;5053251;28;20025;-70
2023/03/03 04:23:42;;;;;;;62.72;39.55;;;;;;;-1.02;100.00;102379.69;5054178;28;20051;-70
2023/03/03 04:26:08;;;;;;;60.60;37.45;;;;;;;-1.00;100.00;102384.91;5053419;28;20052;-70
2023/03/03 04:28:33;;;;;;;63.17;38.53;;;;;;;-0.99;100.00;102381.63;5053640;28;20190;-70
2023/03/03 04:30:59;;;;;;;62.58;37.83;;;;;;;-0.97;100.00;102380.13;5053613;28;20025;-71
2023/03/03 04:33:24;;;;;;;63.05;37.47;;;;;;;-0.96;100.00;102375.97;5053692;28;20115;-70
2023/03/03 04:35:50;;;;;;;61.30;36.33;;;;;;;-0.93;100.00;102383.88;5053475;28;20469;-70
2023/03/03 04:38:16;;;;;;;60.63;37.78;;;;;;;-0.91;100.00;102375.69;5053464;28;20036;-70
2023/03/03 04:40:41;;;;;;;60.95;37.15;;;;;;;-0.89;100.00;102391.94;5053614;28;20025;-70
2023/03/03 04:43:07;;;;;;;62.38;37.00;;;;;;;-0.87;100.00;102384.50;5053139;28;20124;-70
2023/03/03 04:45:32;;;;;;;61.83;37.28;;;;;;;-0.85;100.00;102377.97;5053840;28;20036;-70
2023/03/03 04:47:58;;;;;;;58.17;35.85;;;;;;;-0.82;100.00;102385.84;5052550;28;20029;-70
2023/03/03 04:50:23;;;;;;;61.15;36.95;;;;;;;-0.80;100.00;102379.31;5053773;28;20064;-70
2023/03/03 04:52:48;;;;;;;59.42;35.28;;;;;;;-0.77;100.00;102384.69;5053543;28;20441;-70
2023/03/03 04:55:15;;;;;;;54.97;34.58;;;;;;;-0.75;100.00;102392.41;5052430;28;20132;-70
2023/03/03 04:57:41;;;;;;;56.15;34.35;;;;;;;-0.73;100.00;102385.88;5053734;28;20059;-71
2023/03/03 05:00:08;;;;;;;58.35;35.25;;;;;;;-0.73;100.00;102384.25;5052953;28;20400;-70
2023/03/03 05:02:34;;;;;;;64.32;36.33;;;;;;;-0.70;100.00;102391.25;5052698;28;20025;-71
2023/03/03 05:04:59;;;;;;;60.13;36.33;;;;;;;-0.69;100.00;102387.97;5053036;28;20066;-70
2023/03/03 05:07:24;;;;;;;62.28;36.58;;;;;;;-0.68;100.00;102384.72;5053148;28;20021;-70
2023/03/03 05:09:50;;;;;;;59.72;34.65;;;;;;;-0.66;100.00;102393.34;5052662;28;20395;-70
2023/03/03 05:12:16;;;;;;;59.65;35.33;;;;;;;-0.63;100.00;102392.75;5052926;28;20380;-70
2023/03/03 05:14:41;;;;;;;56.88;33.42;;;;;;;-0.62;100.00;102400.53;5052761;28;20028;-71
2023/03/03 05:17:07;;;;;;;57.40;35.10;;;;;;;-0.62;100.00;102398.00;5052343;28;20143;-71
2023/03/03 05:19:33;;;;;;;55.08;32.33;;;;;;;-0.60;100.00;102398.13;5053142;28;20041;-70
2023/03/03 05:21:59;;;;;;;56.17;34.40;;;;;;;-0.60;100.00;102398.13;5052632;28;20025;-70
2023/03/03 05:24:24;;;;;;;56.08;33.83;;;;;;;-0.59;100.00;102395.75;5052475;28;20039;-70
2023/03/03 05:26:49;;;;;;;58.70;35.38;;;;;;;-0.56;100.00;102405.28;5053234;28;20025;-70
2023/03/03 05:29:15;;;;;;;64.53;36.45;;;;;;;-0.57;100.00;102394.28;5052599;28;20037;-70
2023/03/03 05:31:40;;;;;;;62.95;35.28;;;;;;;-0.54;100.00;102391.16;5052440;28;20040;-70
2023/03/03 05:34:05;;;;;;;66.20;36.33;;;;;;;-0.51;100.00;102393.97;5052666;28;20031;-70
2023/03/03 05:36:30;;;;;;;65.03;35.78;;;;;;;-0.51;100.00;102394.84;5052610;28;20028;-70
2023/03/03 05:38:56;;;;;;;63.45;35.58;;;;;;;-0.48;100.00;102400.97;5051622;28;20021;-70
2023/03/03 05:41:21;;;;;;;66.57;37.28;;;;;;;-0.46;100.00;102397.84;5053007;28;20025;-70
2023/03/03 05:43:46;;;;;;;65.03;37.00;;;;;;;-0.43;100.00;102402.34;5052908;28;20021;-70
2023/03/03 05:46:12;;;;;;;60.05;36.17;;;;;;;-0.42;100.00;102399.06;5052070;28;20103;-70
2023/03/03 05:48:37;;;;;;;67.93;37.17;;;;;;;-0.40;100.00;102402.63;5052595;28;20025;-70
2023/03/03 05:51:03;;;;;;;63.78;37.50;;;;;;;-0.39;100.00;102405.34;5052142;28;20021;-71
2023/03/03 05:53:29;;;;;;;66.07;36.67;;;;;;;-0.37;100.00;102408.91;5052072;28;20464;-70
2023/03/03 05:55:54;;;;;;;62.78;36.70;;;;;;;-0.35;100.00;102406.50;5052421;28;20047;-71
2023/03/03 05:58:20;;;;;;;62.08;35.90;;;;;;;-0.35;100.00;102402.34;5051749;28;20033;-70
2023/03/03 06:00:46;;;;;;;63.42;36.10;;;;;;;-0.32;100.00;102405.91;5052434;28;20041;-70
2023/03/03 06:03:11;;;;;;;60.90;36.67;;;;;;;-0.31;100.00;102397.56;5052241;28;20091;-70
2023/03/03 06:05:37;;;;;;;64.28;36.10;;;;;;;-0.28;100.00;102410.56;5051728;28;20025;-70
2023/03/03 06:08:02;;;;;;;65.00;37.17;;;;;;;-0.28;100.00;102408.91;5051981;28;20021;-70
2023/03/03 06:10:27;;;;;;;70.75;38.85;;;;;;;-0.28;100.00;102406.38;5052221;28;20033;-70
2023/03/03 06:12:54;;;;;;;75.50;40.85;;;;;;;-0.26;100.00;102404.91;5052057;28;20047;-70
2023/03/03 06:15:20;;;;;;;70.05;40.75;;;;;;;-0.24;100.00;102415.19;5052508;28;20052;-70
2023/03/03 06:17:45;;;;;;;75.85;41.20;;;;;;;-0.24;100.00;102412.66;5052210;28;20530;-70
2023/03/03 06:20:10;;;;;;;71.32;38.55;;;;;;;-0.24;100.00;102422.78;5051524;28;20472;-70
2023/03/03 06:22:36;;;;;;;69.97;38.50;;;;;;;-0.23;100.00;102424.59;5052244;28;20028;-70
2023/03/03 06:25:01;;;;;;;71.65;39.63;;;;;;;-0.22;100.00;102428.88;5051969;28;20025;-70
2023/03/03 06:27:26;;;;;;;68.88;39.08;;;;;;;-0.22;100.00;102419.66;5053793;28;20052;-70
2023/03/03 06:29:52;;;;;;;69.13;39.55;;;;;;;-0.19;100.00;102435.16;5056405;28;20025;-70
2023/03/03 06:32:17;;;;;;;72.93;39.60;;;;;;;-0.19;100.00;102425.03;5055805;28;20099;-70
2023/03/03 06:34:43;;;;;;;67.68;38.10;;;;;;;-0.14;100.00;102434.72;5055651;28;20045;-70
2023/03/03 06:37:08;;;;;;;72.72;40.00;;;;;;;-0.13;100.00;102439.03;5055872;28;20116;-70
2023/03/03 06:39:34;;;;;;;72.70;40.70;;;;;;;-0.13;100.00;102439.94;5055899;28;20021;-70
2023/03/03 06:41:59;;;;;;;73.35;40.00;;;;;;;-0.10;100.00;102445.31;5055037;28;20387;-69
2023/03/03 06:44:24;;;;;;;74.25;41.40;;;;;;;-0.08;100.00;102448.00;5056151;28;20025;-70
2023/03/03 06:46:50;;;;;;;74.65;39.42;;;;;;;-0.06;100.00;102455.00;5055760;28;20040;-69
2023/03/03 06:49:15;;;;;;;71.82;41.35;;;;;;;-0.05;100.00;102463.50;5055236;28;20032;-69
2023/03/03 06:51:41;;;;;;;70.28;41.10;;;;;;;-0.04;100.00;102466.19;5055825;28;20033;-70
2023/03/03 06:54:12;;;;;;;73.88;41.40;;;;;;;-0.01;100.00;102466.47;5055385;28;20021;-70
2023/03/03 06:56:38;;;;;;;76.28;40.78;;;;;;;0.01;100.00;102468.28;5055323;28;20025;-70
2023/03/03 06:59:30;;;;;;;70.38;40.13;;;;;;;0.06;100.00;102473.03;5055261;28;20431;-70
2023/03/03 07:01:56;;;;;;;73.13;39.53;;;;;;;0.06;100.00;102464.56;5053247;28;20037;-70
2023/03/03 07:04:29;;;;;;;66.55;39.17;;;;;;;0.05;100.00;102467.84;5055480;28;20028;-70
2023/03/03 07:07:10;;;;;;;65.97;38.45;;;;;;;0.08;100.00;102475.72;5055263;28;20037;-70
2023/03/03 07:09:35;;;;;;;66.07;38.22;;;;;;;0.07;100.00;102471.44;5054877;28;20046;-70
2023/03/03 07:12:09;;;;;;;71.05;38.70;;;;;;;0.06;100.00;102472.16;5055090;28;20025;-70
2023/03/03 07:14:41;;;;;;;68.60;38.33;;;;;;;0.10;100.00;102476.78;5055216;28;20044;-70
2023/03/03 07:17:15;;;;;;;73.75;39.50;;;;;;;0.11;100.00;102476.03;5054767;28;20029;-70
2023/03/03 07:19:41;;;;;;;70.50;41.25;;;;;;;0.13;100.00;102472.00;5055378;28;20025;-69
2023/03/03 07:22:13;;;;;;;70.65;39.28;;;;;;;0.17;100.00;102479.19;5054792;28;20021;-69
2023/03/03 07:24:39;;;;;;;68.85;40.15;;;;;;;0.18;100.00;102478.41;5054803;28;20028;-68
2023/03/03 07:27:04;;;;;;;70.60;38.65;;;;;;;0.18;100.00;102482.59;5054888;28;20464;-69
2023/03/03 07:29:29;;;;;;;70.88;38.88;;;;;;;0.20;100.00;102479.47;5054800;28;20090;-69
2023/03/03 07:31:57;;;;;;;72.30;38.55;;;;;;;0.20;100.00;102488.75;5054300;28;20046;-69
2023/03/03 07:34:42;;;;;;;72.10;39.13;;;;;;;0.26;100.00;102490.22;5055170;28;20027;-69
2023/03/03 07:37:30;;;;;;;68.55;38.42;;;;;;;0.30;100.00;102499.91;5054005;28;20025;-69
2023/03/03 07:39:56;;;;;;;71.13;39.10;;;;;;;0.30;100.00;102492.31;5054628;28;20159;-69
2023/03/03 07:42:33;;;;;;;71.55;38.70;;;;;;;0.32;100.00;102500.97;5054847;28;20104;-69
2023/03/03 07:44:59;;;;;;;69.80;37.37;;;;;;;0.33;100.00;102509.47;5054405;28;20029;-69
2023/03/03 07:47:28;;;;;;;66.07;36.28;;;;;;;0.30;100.00;102505.00;5054693;28;20098;-69
2023/03/03 07:49:56;;;;;;;67.60;34.53;;;;;;;0.30;100.00;102507.53;5054234;28;20025;-67
2023/03/03 07:52:30;;;;;;;58.10;33.05;;;;;;;0.30;100.00;102515.13;5054075;28;20060;-69
2023/03/03 07:54:59;;;;;;;58.20;33.30;;;;;;;0.32;100.00;102518.72;5054591;28;20029;-69
2023/03/03 07:57:25;;;;;;;61.05;32.67;;;;;;;0.37;100.00;102510.66;5054203;28;20542;-68
2023/03/03 08:00:00;;;;;;;64.65;35.28;;;;;;;0.39;100.00;102514.22;5054046;28;20059;-69
2023/03/03 08:02:46;;;;;;;63.92;34.58;;;;;;;0.45;100.00;102514.84;5054481;28;20095;-69
2023/03/03 08:05:27;;;;;;;62.45;35.08;;;;;;;0.52;100.00;102511.25;5053739;28;20031;-69
2023/03/03 08:07:53;;;;;;;60.60;33.88;;;;;;;0.53;100.00;102526.63;5054449;28;20033;-69
2023/03/03 08:10:35;;;;;;;61.60;34.13;;;;;;;0.61;100.00;102522.31;5053888;28;20037;-69
2023/03/03 08:13:07;;;;;;;63.08;35.10;;;;;;;0.62;100.00;102517.38;5053436;28;20024;-69
2023/03/03 08:15:36;;;;;;;71.70;37.35;;;;;;;0.63;100.00;102528.41;5054209;28;20464;-69
2023/03/03 08:18:01;;;;;;;71.38;39.10;;;;;;;0.59;100.00;102523.78;5053789;28;20029;-69
2023/03/03 08:20:52;;;;;;;68.00;37.88;;;;;;;0.57;100.00;102526.19;5053689;28;20039;-68
2023/03/03 08:23:19;;;;;;;67.93;36.97;;;;;;;0.57;100.00;102532.88;5053757;28;20418;-69
2023/03/03 08:25:46;;;;;;;68.78;36.28;;;;;;;0.60;100.00;102536.63;5054087;28;20083;-69
2023/03/03 08:28:12;;;;;;;67.40;37.20;;;;;;;0.63;100.00;102534.41;5053297;28;20037;-69
2023/03/03 08:30:38;;;;;;;72.50;37.90;;;;;;;0.66;100.00;102533.81;5054409;28;20079;-69
2023/03/03 08:33:03;;;;;;;69.13;36.65;;;;;;;0.71;100.00;102536.75;5052807;28;20025;-69
2023/03/03 08:35:29;;;;;;;65.38;35.22;;;;;;;0.80;100.00;102541.09;5053921;28;20019;-69
2023/03/03 08:37:54;;;;;;;67.13;36.40;;;;;;;0.86;100.00;102537.34;5053216;28;20025;-69
2023/03/03 08:40:20;;;;;;;66.15;34.70;;;;;;;0.88;100.00;102544.38;5053283;28;20453;-69
2023/03/03 08:42:45;;;;;;;60.60;34.58;;;;;;;0.85;100.00;102549.13;5053968;28;20021;-69
2023/03/03 08:45:10;;;;;;;61.67;31.92;;;;;;;0.84;100.00;102547.38;5053136;28;20037;-68
2023/03/03 08:47:36;;;;;;;59.55;35.10;;;;;;;0.90;100.00;102547.94;5053230;28;20028;-69
2023/03/03 08:50:01;;;;;;;60.83;33.45;;;;;;;0.93;100.00;102545.72;5052654;28;20056;-69
2023/03/03 08:52:26;;;;;;;51.97;29.40;;;;;;;0.94;100.00;102550.03;5053294;28;20051;-68
2023/03/03 08:54:51;;;;;;;55.25;31.90;;;;;;;1.02;100.00;102553.31;5052889;28;20094;-68
2023/03/03 08:57:17;;;;;;;48.40;28.40;;;;;;;1.00;100.00;102559.88;5053354;28;20029;-69
2023/03/03 08:59:43;;;;;;;52.63;28.60;;;;;;;1.07;100.00;102561.34;5053489;28;20028;-69
2023/03/03 09:02:08;;;;;;;48.35;28.30;;;;;;;1.29;100.00;102569.38;5052330;28;20063;-68
2023/03/03 09:04:33;;;;;;;50.00;28.35;;;;;;;1.26;100.00;102557.28;5053326;28;20020;-68
2023/03/03 09:06:59;;;;;;;49.40;28.52;;;;;;;1.28;100.00;102562.53;5052863;28;20427;-69
2023/03/03 09:09:24;;;;;;;47.38;26.90;;;;;;;1.27;100.00;102566.69;5052477;28;20119;-70
2023/03/03 09:11:53;;;;;;;41.97;25.20;;;;;;;1.38;100.00;102570.28;5053334;28;20435;-68
2023/03/03 09:14:19;;;;;;;38.85;24.88;;;;;;;1.64;100.00;102567.63;5053002;28;20021;-69
2023/03/03 09:16:50;;;;;;;40.58;25.25;;;;;;;1.76;100.00;102566.97;5052657;28;20025;-69
2023/03/03 09:19:24;;;;;;;43.17;25.50;;;;;;;1.86;100.00;102569.63;5052676;28;20049;-68
2023/03/03 09:21:55;;;;;;;39.70;22.88;;;;;;;2.14;100.00;102565.44;5052850;28;20036;-69
2023/03/03 09:24:34;;;;;;;39.85;23.25;;;;;;;2.19;100.00;102570.91;5052521;28;20024;-68
2023/03/03 09:26:59;;;;;;;40.00;23.70;;;;;;;2.38;100.00;102570.06;5052496;28;20111;-68
2023/03/03 09:29:30;;;;;;;35.13;19.83;;;;;;;2.25;100.00;102573.16;5052315;28;20115;-69
2023/03/03 09:31:59;;;;;;;32.88;20.48;;;;;;;2.30;100.00;102575.34;5052516;28;20473;-69
2023/03/03 09:34:32;;;;;;;33.67;20.25;;;;;;;2.26;100.00;102570.75;5052837;28;20029;-69
2023/03/03 09:36:58;;;;;;;35.72;20.85;;;;;;;2.43;100.00;102568.84;5052177;28;20038;-68
2023/03/03 09:39:26;;;;;;;30.95;18.58;;;;;;;2.45;100.00;102567.31;5052839;28;20354;-69
2023/03/03 09:42:09;;;;;;;32.17;19.50;;;;;;;2.52;100.00;102579.84;5052521;28;20497;-69
2023/03/03 09:44:56;;;;;;;33.47;19.80;;;;;;;2.47;100.00;102573.44;5052057;28;20067;-68
2023/03/03 09:47:37;;;;;;;32.73;20.23;;;;;;;2.57;100.00;102581.16;5052945;28;20033;-69
2023/03/03 09:50:41;;;;;;;32.80;20.58;;;;;;;2.65;100.00;102581.84;5052189;28;20116;-68
2023/03/03 09:53:21;;;;;;;36.35;20.92;;;;;;;2.66;100.00;102581.09;5052274;28;20032;-69
2023/03/03 09:56:08;;;;;;;31.20;19.45;;;;;;;2.58;100.00;102588.03;5052335;28;20029;-68
2023/03/03 09:59:00;;;;;;;37.05;20.17;;;;;;;2.57;100.00;102580.22;5052171;28;20064;-69
2023/03/03 10:01:37;;;;;;;37.55;20.98;;;;;;;2.43;100.00;102584.09;5054368;28;20049;-69
2023/03/03 10:04:17;;;;;;;33.65;20.40;;;;;;;2.40;100.00;102578.72;5056346;28;20025;-69
2023/03/03 10:06:42;;;;;;;31.33;18.98;;;;;;;2.36;100.00;102581.75;5056392;28;20025;-69
2023/03/03 10:09:41;;;;;;;33.85;19.67;;;;;;;2.40;100.00;102589.81;5056051;28;20036;-69
2023/03/03 10:12:13;;;;;;;33.22;19.08;;;;;;;2.33;100.00;102592.53;5055953;28;20048;-69
2023/03/03 10:15:11;;;;;;;31.35;18.52;;;;;;;2.44;100.00;102588.41;5056688;28;20053;-68
2023/03/03 10:17:39;;;;;;;32.40;19.88;;;;;;;2.54;100.00;102585.94;5056326;28;20028;-69
2023/03/03 10:20:10;;;;;;;;;;;;;;;2.73;100.00;102585.06;5055937;28;20044;-69
2023/03/03 10:22:45;;;;;;;30.58;19.75;;;;;;;2.77;100.00;102587.13;5056611;28;20007;-69
2023/03/03 10:25:37;;;;;;;29.25;18.27;;;;;;;2.78;100.00;102586.38;5056096;28;20112;-69
2023/03/03 10:28:28;;;;;;;31.90;19.92;;;;;;;2.87;100.00;102588.84;5056028;28;20114;-69
2023/03/03 10:31:15;;;;;;;30.00;19.73;;;;;;;2.97;100.00;102594.88;5056037;28;20037;-69
2023/03/03 10:33:59;;;;;;;34.53;20.35;;;;;;;3.04;100.00;102597.97;5055947;28;20069;-68
2023/03/03 10:36:34;;;;;;;31.27;18.90;;;;;;;3.03;98.68;102594.53;5056219;28;20087;-69
2023/03/03 10:39:12;;;;;;;33.28;19.60;;;;;;;3.23;99.04;102590.31;5055500;28;20087;-69
2023/03/03 10:41:55;;;;;;;31.85;19.05;;;;;;;3.45;98.08;102590.50;5055479;28;20480;-68
2023/03/03 10:44:48;;;;;;;33.10;19.63;;;;;;;3.56;98.46;102591.44;5055849;28;20021;-68
2023/03/03 10:47:28;;;;;;;29.42;18.50;;;;;;;4.18;96.41;102584.75;5055021;28;20032;-68
2023/03/03 10:50:24;;;;;;;28.13;17.75;;;;;;;4.59;93.88;102589.84;5055762;28;20065;-69
2023/03/03 10:53:07;;;;;;;31.02;19.08;;;;;;;4.99;90.41;102591.31;5055781;28;20032;-67
2023/03/03 10:56:13;;;;;;;31.25;19.83;;;;;;;5.33;90.76;102586.31;5055170;28;20029;-69
2023/03/03 10:58:45;;;;;;;31.80;20.25;;;;;;;5.20;86.55;102577.72;5055470;28;20384;-68
2023/03/03 11:01:44;;;;;;;28.73;19.10;;;;;;;5.26;87.49;102588.38;5054707;28;20137;-68
2023/03/03 11:04:37;;;;;;;30.45;18.80;;;;;;;5.13;88.23;102585.63;5055505;28;20032;-68
2023/03/03 11:07:19;;;;;;;31.70;20.05;;;;;;;5.19;87.74;102578.47;5054988;28;20029;-68
2023/03/03 11:10:08;;;;;;;28.95;17.92;;;;;;;5.13;89.21;102583.09;5055080;28;20029;-68
2023/03/03 11:12:48;;;;;;;33.40;20.55;;;;;;;4.94;89.87;102589.28;5054748;28;20033;-68
2023/03/03 11:15:38;;;;;;;33.90;19.95;;;;;;;5.05;90.65;102586.72;5054609;28;20491;-68
2023/03/03 11:18:26;;;;;;;31.10;19.08;;;;;;;5.10;89.87;102583.72;5055017;28;20469;-68